createdAt,value
2024-04-30T00:00:28.881Z,1.06
2024-04-30T00:01:28.856Z,1.56
2024-04-30T00:02:28.842Z,2.25
2024-04-30T00:03:28.880Z,2.62
2024-04-30T00:04:28.914Z,1.91
2024-04-30T00:05:28.854Z,1.53
2024-04-30T00:06:28.811Z,1.28
2024-04-30T00:07:28.901Z,1.09
2024-04-30T00:08:28.798Z,0.94
2024-04-30T00:09:28.799Z,0.86
2024-04-30T00:10:28.891Z,0.78
2024-04-30T00:11:28.818Z,0.71
2024-04-30T00:12:28.801Z,0.68
2024-04-30T00:13:28.905Z,0.64
2024-04-30T00:14:28.817Z,0.61
2024-04-30T00:15:28.767Z,0.58
2024-04-30T00:16:28.825Z,0.56
2024-04-30T00:17:28.796Z,0.54
2024-04-30T00:18:28.759Z,0.53
2024-04-30T00:19:28.824Z,0.52
2024-04-30T00:20:28.769Z,0.50
2024-04-30T00:21:28.735Z,0.51
2024-04-30T00:22:28.790Z,0.50
2024-04-30T00:23:28.705Z,0.50
2024-04-30T00:24:28.693Z,0.51
2024-04-30T00:25:28.758Z,0.50
2024-04-30T00:26:28.673Z,0.50
2024-04-30T00:27:28.668Z,0.51
2024-04-30T00:28:28.740Z,0.51
2024-04-30T00:29:28.633Z,0.51
2024-04-30T00:30:28.627Z,0.51
2024-04-30T00:31:28.750Z,0.50
2024-04-30T00:32:28.680Z,0.50
2024-04-30T00:33:28.585Z,0.51
2024-04-30T00:34:28.586Z,0.50
2024-04-30T00:35:28.573Z,0.51
2024-04-30T00:36:28.544Z,0.51
2024-04-30T00:37:28.621Z,0.50
2024-04-30T00:38:28.504Z,0.50
2024-04-30T00:39:28.500Z,0.51
2024-04-30T00:40:28.516Z,0.51
2024-04-30T00:41:28.446Z,0.51
2024-04-30T00:42:28.423Z,0.51
2024-04-30T00:43:28.504Z,0.51
2024-04-30T00:44:28.402Z,0.52
2024-04-30T00:45:28.380Z,0.51
2024-04-30T00:46:28.434Z,0.52
2024-04-30T00:47:28.374Z,0.52
2024-04-30T00:48:28.433Z,0.51
2024-04-30T00:49:28.453Z,0.52
2024-04-30T00:50:28.381Z,0.52
2024-04-30T00:51:28.399Z,0.52
2024-04-30T00:52:28.512Z,0.52
2024-04-30T00:53:28.516Z,0.53
2024-04-30T00:54:28.577Z,0.52
2024-04-30T00:55:28.697Z,0.52
2024-04-30T00:56:28.606Z,0.52
2024-04-30T00:57:28.662Z,0.52
2024-04-30T00:58:28.841Z,0.52
2024-04-30T00:59:28.734Z,0.53
2024-04-30T01:00:28.861Z,0.53
2024-04-30T01:01:28.850Z,0.53
2024-04-30T01:02:28.842Z,0.52
2024-04-30T01:03:28.919Z,0.53
2024-04-30T01:04:28.966Z,0.52
2024-04-30T01:05:28.991Z,0.54
2024-04-30T01:06:29.039Z,0.53
2024-04-30T01:07:29.292Z,0.54
2024-04-30T01:08:29.139Z,0.53
2024-04-30T01:09:29.178Z,0.53
2024-04-30T01:10:29.260Z,0.52
2024-04-30T01:11:29.339Z,0.53
2024-04-30T01:12:29.387Z,0.53
2024-04-30T01:13:29.430Z,0.53
2024-04-30T01:14:29.415Z,0.54
2024-04-30T01:15:29.460Z,0.53
2024-04-30T01:16:29.583Z,0.53
2024-04-30T01:17:29.682Z,0.53
2024-04-30T01:18:29.613Z,0.53
2024-04-30T01:19:29.757Z,0.53
2024-04-30T01:20:29.719Z,0.53
2024-04-30T01:21:29.794Z,0.54
2024-04-30T01:22:29.951Z,0.54
2024-04-30T01:23:29.890Z,0.54
2024-04-30T01:24:29.961Z,0.53
2024-04-30T01:25:30.048Z,0.53
2024-04-30T01:26:30.074Z,0.53
2024-04-30T01:27:30.184Z,0.53
2024-04-30T01:28:30.325Z,0.53
2024-04-30T01:29:30.262Z,0.54
2024-04-30T01:30:30.439Z,0.53
2024-04-30T01:31:31.162Z,0.53
2024-04-30T01:32:30.540Z,0.53
2024-04-30T01:33:30.560Z,0.54
2024-04-30T01:34:30.688Z,0.53
2024-04-30T01:35:30.727Z,0.53
2024-04-30T01:36:30.683Z,0.53
2024-04-30T01:37:30.891Z,0.54
2024-04-30T01:38:30.744Z,0.53
2024-04-30T01:39:30.754Z,0.52
2024-04-30T01:40:30.853Z,0.53
2024-04-30T01:41:30.853Z,0.53
2024-04-30T01:42:30.911Z,0.53
2024-04-30T01:43:31.057Z,0.53
2024-04-30T01:44:30.952Z,0.53
2024-04-30T01:45:30.936Z,0.53
2024-04-30T01:46:31.082Z,0.53
2024-04-30T01:47:31.042Z,0.53
2024-04-30T01:48:31.268Z,0.53
2024-04-30T01:49:31.182Z,0.54
2024-04-30T01:50:31.157Z,0.53
2024-04-30T01:51:31.195Z,0.53
2024-04-30T01:52:31.323Z,0.53
2024-04-30T01:53:31.316Z,0.53
2024-04-30T01:54:31.394Z,0.53
2024-04-30T01:55:31.492Z,0.53
2024-04-30T01:56:31.467Z,0.53
2024-04-30T01:57:31.523Z,0.53
2024-04-30T01:58:31.671Z,0.53
2024-04-30T01:59:31.624Z,0.53
2024-04-30T02:00:31.683Z,0.53
2024-04-30T02:01:31.775Z,0.53
2024-04-30T02:02:31.808Z,0.53
2024-04-30T02:03:31.880Z,0.53
2024-04-30T02:04:38.762Z,0.53
2024-04-30T02:05:31.966Z,0.53
2024-04-30T02:06:31.900Z,0.53
2024-04-30T02:07:32.057Z,0.54
2024-04-30T02:08:31.856Z,0.54
2024-04-30T02:09:31.859Z,0.54
2024-04-30T02:10:31.881Z,0.54
2024-04-30T02:11:31.852Z,0.54
2024-04-30T02:12:31.832Z,0.54
2024-04-30T02:13:31.875Z,0.53
2024-04-30T02:14:31.815Z,0.52
2024-04-30T02:15:31.807Z,0.53
2024-04-30T02:16:31.875Z,0.53
2024-04-30T02:17:31.928Z,0.53
2024-04-30T02:18:31.806Z,0.53
2024-04-30T02:19:31.830Z,0.53
2024-04-30T02:20:31.793Z,0.53
2024-04-30T02:21:31.805Z,0.54
2024-04-30T02:22:31.886Z,0.53
2024-04-30T02:23:31.773Z,0.52
2024-04-30T02:24:31.756Z,0.53
2024-04-30T02:25:31.914Z,0.53
2024-04-30T02:26:31.772Z,0.53
2024-04-30T02:27:31.772Z,0.52
2024-04-30T02:28:31.780Z,0.53
2024-04-30T02:29:31.810Z,0.53
2024-04-30T02:30:31.846Z,0.53
2024-04-30T02:31:31.959Z,0.53
2024-04-30T02:32:31.999Z,0.52
2024-04-30T02:33:31.994Z,0.53
2024-04-30T02:34:32.102Z,0.54
2024-04-30T02:35:32.056Z,0.54
2024-04-30T02:36:32.126Z,0.54
2024-04-30T02:37:32.267Z,0.53
2024-04-30T02:38:32.227Z,0.53
2024-04-30T02:39:32.275Z,0.53
2024-04-30T02:40:32.430Z,0.53
2024-04-30T02:41:32.472Z,0.54
2024-04-30T02:42:32.471Z,0.53
2024-04-30T02:43:32.590Z,0.54
2024-04-30T02:44:32.546Z,0.53
2024-04-30T02:45:32.600Z,0.54
2024-04-30T02:46:32.732Z,0.54
2024-04-30T02:47:32.833Z,0.54
2024-04-30T02:48:32.778Z,0.54
2024-04-30T02:49:33.047Z,0.54
2024-04-30T02:50:32.896Z,0.53
2024-04-30T02:51:32.938Z,0.54
2024-04-30T02:52:33.060Z,0.54
2024-04-30T02:53:33.046Z,0.54
2024-04-30T02:54:33.114Z,0.52
2024-04-30T02:55:33.294Z,0.54
2024-04-30T02:56:33.192Z,0.53
2024-04-30T02:57:33.193Z,0.53
2024-04-30T02:58:33.297Z,0.55
2024-04-30T02:59:33.268Z,0.54
2024-04-30T03:00:33.340Z,0.54
2024-04-30T03:01:33.283Z,0.55
2024-04-30T03:02:33.358Z,0.54
2024-04-30T03:03:33.405Z,0.54
2024-04-30T03:04:33.432Z,0.54
2024-04-30T03:05:33.452Z,0.54
2024-04-30T03:06:33.491Z,0.54
2024-04-30T03:07:33.617Z,0.53
2024-04-30T03:08:33.571Z,0.54
2024-04-30T03:09:33.633Z,0.54
2024-04-30T03:10:33.824Z,0.53
2024-04-30T03:11:33.757Z,0.53
2024-04-30T03:12:33.772Z,0.53
2024-04-30T03:13:33.870Z,0.54
2024-04-30T03:14:33.912Z,0.53
2024-04-30T03:15:33.937Z,0.53
2024-04-30T03:16:33.959Z,0.53
2024-04-30T03:17:34.074Z,0.52
2024-04-30T03:18:34.070Z,0.53
2024-04-30T03:19:34.252Z,0.53
2024-04-30T03:20:34.200Z,0.52
2024-04-30T03:21:34.265Z,0.52
2024-04-30T03:22:34.373Z,0.53
2024-04-30T03:23:34.394Z,0.53
2024-04-30T03:24:34.455Z,0.53
2024-04-30T03:25:34.591Z,0.53
2024-04-30T03:26:34.569Z,0.53
2024-04-30T03:27:34.615Z,0.53
2024-04-30T03:28:34.711Z,0.54
2024-04-30T03:29:34.740Z,0.53
2024-04-30T03:30:34.766Z,0.55
2024-04-30T03:31:34.981Z,0.54
2024-04-30T03:32:34.937Z,0.54
2024-04-30T03:33:35.050Z,0.53
2024-04-30T03:34:35.073Z,0.54
2024-04-30T03:35:35.034Z,0.55
2024-04-30T03:36:35.111Z,0.55
2024-04-30T03:37:35.138Z,0.54
2024-04-30T03:38:35.112Z,0.54
2024-04-30T03:39:35.159Z,0.54
2024-04-30T03:40:35.209Z,0.54
2024-04-30T03:41:35.213Z,0.54
2024-04-30T03:42:35.251Z,0.54
2024-04-30T03:43:35.297Z,0.54
2024-04-30T03:44:35.418Z,0.54
2024-04-30T03:45:35.389Z,0.53
2024-04-30T03:46:35.486Z,0.53
2024-04-30T03:47:35.545Z,0.54
2024-04-30T03:48:35.517Z,0.53
2024-04-30T03:49:35.694Z,0.55
2024-04-30T03:50:35.613Z,0.55
2024-04-30T03:51:35.648Z,0.54
2024-04-30T03:52:35.735Z,0.54
2024-04-30T03:53:35.766Z,0.54
2024-04-30T03:54:35.799Z,0.55
2024-04-30T03:55:35.852Z,0.56
2024-04-30T03:56:35.912Z,0.57
2024-04-30T03:57:35.984Z,0.56
2024-04-30T03:58:36.118Z,0.58
2024-04-30T03:59:36.104Z,0.58
2024-04-30T04:00:36.168Z,0.58
2024-04-30T04:01:36.228Z,0.58
2024-04-30T04:02:36.279Z,0.58
2024-04-30T04:03:36.317Z,0.58
2024-04-30T04:04:36.347Z,0.59
2024-04-30T04:05:36.364Z,0.59
2024-04-30T04:06:36.453Z,0.60
2024-04-30T04:07:36.665Z,0.60
2024-04-30T04:08:36.506Z,0.59
2024-04-30T04:09:36.571Z,0.61
2024-04-30T04:10:36.655Z,0.61
2024-04-30T04:11:36.648Z,0.61
2024-04-30T04:12:36.653Z,0.61
2024-04-30T04:13:36.646Z,0.63
2024-04-30T04:14:36.687Z,0.62
2024-04-30T04:15:36.735Z,0.63
2024-04-30T04:16:36.875Z,0.62
2024-04-30T04:17:36.830Z,0.63
2024-04-30T04:18:36.896Z,0.62
2024-04-30T04:19:36.940Z,0.63
2024-04-30T04:20:36.852Z,0.63
2024-04-30T04:21:36.883Z,0.63
2024-04-30T04:22:36.958Z,0.63
2024-04-30T04:23:36.868Z,0.63
2024-04-30T04:24:36.942Z,0.64
2024-04-30T04:25:37.071Z,0.64
2024-04-30T04:26:36.991Z,0.63
2024-04-30T04:27:37.034Z,0.65
2024-04-30T04:28:37.114Z,0.64
2024-04-30T04:29:37.103Z,0.65
2024-04-30T04:30:37.159Z,0.65
2024-04-30T04:31:37.258Z,0.65
2024-04-30T04:32:37.283Z,0.64
2024-04-30T04:33:37.175Z,0.65
2024-04-30T04:34:37.238Z,0.65
2024-04-30T04:35:37.181Z,0.64
2024-04-30T04:36:44.365Z,0.50
2024-04-30T04:37:45.444Z,0.50
2024-04-30T04:38:45.382Z,0.50
2024-04-30T04:39:45.384Z,0.50
2024-04-30T04:40:45.459Z,0.50
2024-04-30T04:41:45.404Z,0.50
2024-04-30T04:42:45.403Z,0.50
2024-04-30T04:43:45.431Z,0.51
2024-04-30T04:44:45.417Z,0.51
2024-04-30T04:45:45.437Z,0.51
2024-04-30T04:46:45.410Z,0.50
2024-04-30T04:47:45.475Z,0.51
2024-04-30T04:48:45.428Z,0.51
2024-04-30T04:49:45.458Z,0.51
2024-04-30T04:50:45.466Z,0.51
2024-04-30T04:51:45.483Z,0.52
2024-04-30T04:52:45.489Z,0.53
2024-04-30T04:53:45.505Z,0.53
2024-04-30T04:54:45.505Z,0.53
2024-04-30T04:55:45.549Z,0.53
2024-04-30T04:56:45.530Z,0.53
2024-04-30T04:57:45.548Z,0.52
2024-04-30T04:58:45.530Z,0.52
2024-04-30T04:59:45.552Z,0.51
2024-04-30T05:00:45.673Z,0.51
2024-04-30T05:01:45.806Z,0.51
2024-04-30T05:02:45.692Z,0.52
2024-04-30T05:03:45.733Z,0.51
2024-04-30T05:04:46.039Z,0.51
2024-04-30T05:05:45.728Z,0.51
2024-04-30T05:06:45.802Z,0.51
2024-04-30T05:07:45.873Z,0.52
2024-04-30T05:08:45.904Z,0.52
2024-04-30T05:09:45.886Z,0.51
2024-04-30T05:10:45.914Z,0.51
2024-04-30T05:11:45.882Z,0.51
2024-04-30T05:12:45.926Z,0.52
2024-04-30T05:13:46.475Z,0.52
2024-04-30T05:14:46.045Z,0.53
2024-04-30T05:15:46.099Z,0.52
2024-04-30T05:16:46.282Z,0.53
2024-04-30T05:17:46.333Z,0.55
2024-04-30T05:18:46.242Z,0.55
2024-04-30T05:19:46.279Z,0.54
2024-04-30T05:20:46.319Z,0.54
2024-04-30T05:21:46.356Z,0.55
2024-04-30T05:22:46.392Z,0.55
2024-04-30T05:23:46.381Z,0.57
2024-04-30T05:24:46.437Z,0.56
2024-04-30T05:25:46.486Z,0.56
2024-04-30T05:26:46.442Z,0.59
2024-04-30T05:27:46.454Z,0.60
2024-04-30T05:28:46.478Z,0.61
2024-04-30T05:29:46.483Z,0.64
2024-04-30T05:30:46.556Z,0.66
2024-04-30T05:31:46.693Z,0.68
2024-04-30T05:32:46.670Z,0.70
2024-04-30T05:33:46.707Z,0.72
2024-04-30T05:34:46.787Z,0.76
2024-04-30T05:35:46.753Z,0.78
2024-04-30T05:36:46.792Z,0.82
2024-04-30T05:37:46.835Z,0.85
2024-04-30T05:38:46.846Z,0.89
2024-04-30T05:39:46.899Z,0.92
2024-04-30T05:40:46.993Z,0.96
2024-04-30T05:41:47.490Z,0.99
2024-04-30T05:42:47.078Z,1.04
2024-04-30T05:43:47.183Z,1.09
2024-04-30T05:44:47.168Z,1.13
2024-04-30T05:45:48.067Z,1.15
2024-04-30T05:46:47.295Z,1.23
2024-04-30T05:47:47.292Z,1.28
2024-04-30T05:48:47.320Z,1.34
2024-04-30T05:49:47.509Z,1.38
2024-04-30T05:50:47.498Z,1.41
2024-04-30T05:51:47.473Z,1.40
2024-04-30T05:52:48.111Z,1.41
2024-04-30T05:53:47.997Z,1.48
2024-04-30T05:54:47.696Z,1.51
2024-04-30T05:55:47.792Z,1.50
2024-04-30T05:56:47.761Z,1.46
2024-04-30T05:57:47.823Z,1.44
2024-04-30T05:58:47.993Z,1.50
2024-04-30T05:59:47.791Z,1.59
2024-04-30T06:00:47.842Z,1.54
2024-04-30T06:01:47.898Z,1.55
2024-04-30T06:02:47.882Z,1.54
2024-04-30T06:03:48.179Z,1.54
2024-04-30T06:04:48.091Z,1.63
2024-04-30T06:05:48.002Z,1.70
2024-04-30T06:06:48.016Z,1.84
2024-04-30T06:07:48.539Z,1.91
2024-04-30T06:08:48.137Z,2.03
2024-04-30T06:09:48.192Z,2.18
2024-04-30T06:10:48.349Z,2.31
2024-04-30T06:11:48.291Z,2.48
2024-04-30T06:12:48.338Z,2.68
2024-04-30T06:13:48.428Z,2.90
2024-04-30T06:14:48.394Z,3.27
2024-04-30T06:15:48.440Z,2.96
2024-04-30T06:16:48.475Z,3.54
2024-04-30T06:17:48.553Z,3.87
2024-04-30T06:18:48.595Z,4.22
2024-04-30T06:19:48.620Z,4.44
2024-04-30T06:20:48.604Z,4.65
2024-04-30T06:21:48.650Z,4.70
2024-04-30T06:22:48.655Z,4.85
2024-04-30T06:23:48.699Z,4.86
2024-04-30T06:24:48.714Z,4.93
2024-04-30T06:25:49.071Z,5.03
2024-04-30T06:26:48.759Z,4.99
2024-04-30T06:27:48.787Z,5.07
2024-04-30T06:28:48.806Z,5.11
2024-04-30T06:29:48.833Z,5.06
2024-04-30T06:30:48.845Z,4.66
2024-04-30T06:31:48.866Z,4.26
2024-04-30T06:32:49.121Z,4.00
2024-04-30T06:33:48.920Z,3.71
2024-04-30T06:34:48.972Z,3.53
2024-04-30T06:35:48.939Z,3.29
2024-04-30T06:36:48.917Z,3.12
2024-04-30T06:37:49.032Z,2.94
2024-04-30T06:38:48.981Z,2.81
2024-04-30T06:39:48.950Z,2.64
2024-04-30T06:40:49.127Z,2.47
2024-04-30T06:41:48.964Z,2.33
2024-04-30T06:42:48.975Z,2.20
2024-04-30T06:43:48.988Z,2.11
2024-04-30T06:44:49.000Z,2.02
2024-04-30T06:45:49.007Z,1.96
2024-04-30T06:46:48.998Z,1.89
2024-04-30T06:47:49.204Z,1.84
2024-04-30T06:48:49.151Z,1.87
2024-04-30T06:49:49.099Z,1.89
2024-04-30T06:50:49.006Z,1.93
2024-04-30T06:51:49.052Z,1.96
2024-04-30T06:52:49.606Z,2.01
2024-04-30T06:53:49.049Z,2.09
2024-04-30T06:54:48.982Z,2.17
2024-04-30T06:55:48.995Z,2.24
2024-04-30T06:56:48.982Z,2.27
2024-04-30T06:57:49.016Z,2.37
2024-04-30T06:58:49.054Z,2.29
2024-04-30T06:59:49.015Z,2.29
2024-04-30T07:00:49.057Z,2.19
2024-04-30T07:01:49.056Z,2.13
2024-04-30T07:02:49.065Z,2.03
2024-04-30T07:03:49.514Z,2.01
2024-04-30T07:04:49.151Z,1.96
2024-04-30T07:05:49.034Z,1.96
2024-04-30T07:06:49.045Z,1.92
2024-04-30T07:07:49.043Z,1.89
2024-04-30T07:08:49.045Z,1.86
2024-04-30T07:09:49.049Z,1.86
2024-04-30T07:10:49.154Z,1.83
2024-04-30T07:11:49.033Z,1.84
2024-04-30T07:12:49.038Z,1.88
2024-04-30T07:13:49.078Z,1.86
2024-04-30T07:14:49.073Z,1.97
2024-04-30T07:15:49.120Z,1.99
2024-04-30T07:16:56.731Z,2.03
2024-04-30T07:17:49.215Z,2.03
2024-04-30T07:18:49.144Z,2.06
2024-04-30T07:19:51.732Z,2.12
2024-04-30T07:20:49.077Z,2.04
2024-04-30T07:21:49.051Z,2.08
2024-04-30T07:22:49.079Z,2.16
2024-04-30T07:23:49.541Z,2.28
2024-04-30T07:24:49.033Z,2.47
2024-04-30T07:25:49.132Z,2.51
2024-04-30T07:26:49.001Z,2.62
2024-04-30T07:27:48.986Z,2.56
2024-04-30T07:28:49.092Z,2.63
2024-04-30T07:29:48.972Z,2.76
2024-04-30T07:30:48.952Z,2.81
2024-04-30T07:31:49.001Z,2.93
2024-04-30T07:32:49.201Z,3.02
2024-04-30T07:33:49.858Z,3.14
2024-04-30T07:34:48.987Z,3.20
2024-04-30T07:35:48.932Z,3.21
2024-04-30T07:36:48.884Z,3.21
2024-04-30T07:37:49.088Z,3.14
2024-04-30T07:38:49.065Z,2.99
2024-04-30T07:39:49.108Z,3.03
2024-04-30T07:40:48.884Z,3.01
2024-04-30T07:41:48.909Z,2.97
2024-04-30T07:42:48.815Z,2.88
2024-04-30T07:43:49.171Z,2.86
2024-04-30T07:44:48.839Z,2.86
2024-04-30T07:45:48.881Z,2.86
2024-04-30T07:46:48.886Z,2.86
2024-04-30T07:47:51.455Z,2.93
2024-04-30T07:48:48.924Z,2.94
2024-04-30T07:49:48.874Z,2.95
2024-04-30T07:50:48.830Z,2.94
2024-04-30T07:51:48.848Z,2.89
2024-04-30T07:52:49.066Z,2.84
2024-04-30T07:53:48.794Z,2.73
2024-04-30T07:54:48.791Z,2.69
2024-04-30T07:56:05.429Z,2.67
2024-04-30T07:56:48.762Z,2.68
2024-04-30T07:57:49.200Z,2.57
2024-04-30T07:58:48.800Z,2.38
2024-04-30T07:59:48.730Z,2.18
2024-04-30T08:00:48.752Z,2.02
2024-04-30T08:01:48.788Z,1.86
2024-04-30T08:02:49.381Z,1.70
2024-04-30T08:03:48.866Z,1.58
2024-04-30T08:04:48.714Z,1.49
2024-04-30T08:06:47.677Z,1.29
2024-04-30T08:07:48.674Z,1.26
2024-04-30T08:08:49.058Z,1.20
2024-04-30T08:09:48.557Z,1.13
2024-04-30T08:10:48.737Z,1.08
2024-04-30T08:11:48.672Z,1.05
2024-04-30T08:12:48.558Z,0.96
2024-04-30T08:13:49.206Z,0.94
2024-04-30T08:14:48.522Z,0.95
2024-04-30T08:15:48.499Z,0.99
2024-04-30T08:16:48.637Z,1.00
2024-04-30T08:17:48.558Z,0.99
2024-04-30T08:18:48.456Z,0.97
2024-04-30T08:19:48.479Z,0.98
2024-04-30T08:20:48.433Z,1.02
2024-04-30T08:21:48.398Z,0.97
2024-04-30T08:22:48.463Z,1.00
2024-04-30T08:23:48.382Z,0.93
2024-04-30T08:24:49.427Z,0.95
2024-04-30T08:25:48.360Z,0.95
2024-04-30T08:26:48.332Z,0.98
2024-04-30T08:27:48.318Z,0.97
2024-04-30T08:28:48.307Z,0.98
2024-04-30T08:29:48.318Z,0.96
2024-04-30T08:30:48.299Z,0.99
2024-04-30T08:31:48.337Z,0.98
2024-04-30T08:32:48.373Z,0.95
2024-04-30T08:33:48.327Z,0.95
2024-04-30T08:34:48.257Z,0.99
2024-04-30T08:35:48.251Z,0.97
2024-04-30T08:36:48.254Z,0.99
2024-04-30T08:37:54.652Z,0.97
2024-04-30T08:38:48.241Z,0.97
2024-04-30T08:39:48.304Z,0.96
2024-04-30T08:40:48.266Z,0.93
2024-04-30T08:41:48.215Z,0.89
2024-04-30T08:42:48.156Z,0.87
2024-04-30T08:43:48.255Z,0.82
2024-04-30T08:44:48.565Z,0.79
2024-04-30T08:45:48.154Z,0.74
2024-04-30T08:46:48.166Z,0.71
2024-04-30T08:47:48.113Z,0.69
2024-04-30T08:48:48.086Z,0.67
2024-04-30T08:49:51.903Z,0.70
2024-04-30T08:50:48.098Z,0.70
2024-04-30T08:51:48.035Z,0.71
2024-04-30T08:52:48.060Z,0.71
2024-04-30T08:53:48.033Z,0.67
2024-04-30T08:54:48.091Z,0.66
2024-04-30T08:55:48.048Z,0.66
2024-04-30T08:56:47.973Z,0.67
2024-04-30T08:57:47.955Z,0.69
2024-04-30T08:58:47.978Z,0.67
2024-04-30T08:59:47.949Z,0.69
2024-04-30T09:00:47.955Z,0.72
2024-04-30T09:01:48.008Z,0.72
2024-04-30T09:02:51.252Z,0.71
2024-04-30T09:03:47.958Z,0.71
2024-04-30T09:04:48.039Z,0.73
2024-04-30T09:05:47.905Z,0.74
2024-04-30T09:06:47.885Z,0.77
2024-04-30T09:07:47.915Z,0.80
2024-04-30T09:08:49.379Z,0.83
2024-04-30T09:09:48.117Z,0.81
2024-04-30T09:10:48.156Z,0.83
2024-04-30T09:11:48.251Z,0.77
2024-04-30T09:12:48.066Z,0.74
2024-04-30T09:13:48.169Z,0.71
2024-04-30T09:14:48.577Z,0.68
2024-04-30T09:15:48.120Z,0.68
2024-04-30T09:16:48.221Z,0.68
2024-04-30T09:17:48.225Z,0.70
2024-04-30T09:18:48.127Z,0.69
2024-04-30T09:19:48.183Z,0.73
2024-04-30T09:20:48.138Z,0.71
2024-04-30T09:21:48.351Z,0.72
2024-04-30T09:22:48.241Z,0.74
2024-04-30T09:23:48.214Z,0.75
2024-04-30T09:24:48.573Z,0.77
2024-04-30T09:25:48.292Z,0.77
2024-04-30T09:26:48.581Z,0.80
2024-04-30T09:27:48.283Z,0.84
2024-04-30T09:28:48.414Z,0.83
2024-04-30T09:29:48.344Z,0.86
2024-04-30T09:30:48.616Z,0.89
2024-04-30T09:31:48.506Z,0.93
2024-04-30T09:32:48.520Z,0.95
2024-04-30T09:33:48.548Z,1.04
2024-04-30T09:34:48.622Z,1.13
2024-04-30T09:35:49.105Z,1.16
2024-04-30T09:36:48.612Z,1.21
2024-04-30T09:37:48.704Z,1.23
2024-04-30T09:38:48.684Z,1.24
2024-04-30T09:39:49.611Z,1.31
2024-04-30T09:40:48.702Z,1.38
2024-04-30T09:41:48.710Z,1.41
2024-04-30T09:42:48.717Z,1.47
2024-04-30T09:43:48.891Z,1.58
2024-04-30T09:44:48.758Z,1.63
2024-04-30T09:45:48.763Z,1.74
2024-04-30T09:46:48.858Z,1.81
2024-04-30T09:47:48.776Z,1.94
2024-04-30T09:48:48.750Z,2.04
2024-04-30T09:49:48.988Z,2.18
2024-04-30T09:50:49.090Z,2.35
2024-04-30T09:51:48.734Z,2.50
2024-04-30T09:52:48.766Z,2.60
2024-04-30T09:53:49.110Z,2.64
2024-04-30T09:54:48.671Z,2.80
2024-04-30T09:55:48.746Z,2.85
2024-04-30T09:56:48.703Z,2.86
2024-04-30T09:57:48.658Z,2.98
2024-04-30T09:58:48.702Z,3.03
2024-04-30T09:59:48.718Z,3.05
2024-04-30T10:00:48.627Z,3.16
2024-04-30T10:01:48.693Z,3.23
2024-04-30T10:02:48.787Z,3.24
2024-04-30T10:03:48.714Z,3.27
2024-04-30T10:04:48.858Z,3.34
2024-04-30T10:05:48.888Z,3.35
2024-04-30T10:06:52.171Z,3.81
2024-04-30T10:07:48.867Z,3.81
2024-04-30T10:08:48.817Z,3.76
2024-04-30T10:09:49.101Z,3.51
2024-04-30T10:10:48.886Z,3.46
2024-04-30T10:11:48.771Z,3.39
2024-04-30T10:12:48.703Z,3.44
2024-04-30T10:13:48.716Z,3.21
2024-04-30T10:14:48.751Z,3.20
2024-04-30T10:15:48.631Z,3.06
2024-04-30T10:16:48.690Z,3.03
2024-04-30T10:17:48.658Z,2.97
2024-04-30T10:18:48.569Z,2.85
2024-04-30T10:19:48.585Z,2.88
2024-04-30T10:20:48.560Z,2.89
2024-04-30T10:21:48.634Z,2.85
2024-04-30T10:22:48.628Z,3.00
2024-04-30T10:23:48.619Z,3.11
2024-04-30T10:24:48.644Z,3.22
2024-04-30T10:25:49.698Z,3.33
2024-04-30T10:26:49.119Z,3.15
2024-04-30T10:27:48.749Z,2.89
2024-04-30T10:28:48.865Z,2.68
2024-04-30T10:29:48.921Z,2.53
2024-04-30T10:30:48.827Z,2.31
2024-04-30T10:31:49.588Z,2.01
2024-04-30T10:32:48.970Z,1.82
2024-04-30T10:33:49.014Z,1.65
2024-04-30T10:34:48.996Z,1.50
2024-04-30T10:35:49.001Z,1.38
2024-04-30T10:36:49.155Z,1.28
2024-04-30T10:37:49.083Z,1.22
2024-04-30T10:38:49.113Z,1.14
2024-04-30T10:39:49.152Z,1.21
2024-04-30T10:40:49.232Z,1.18
2024-04-30T10:41:49.258Z,1.14
2024-04-30T10:42:49.273Z,1.20
2024-04-30T10:43:49.324Z,1.20
2024-04-30T10:44:49.344Z,1.19
2024-04-30T10:45:49.372Z,1.21
2024-04-30T10:46:49.459Z,1.24
2024-04-30T10:47:49.653Z,1.29
2024-04-30T10:48:49.492Z,1.30
2024-04-30T10:49:52.767Z,1.29
2024-04-30T10:50:49.531Z,1.29
2024-04-30T10:51:49.488Z,1.31
2024-04-30T10:52:49.454Z,1.34
2024-04-30T10:53:49.442Z,1.43
2024-04-30T10:54:49.397Z,1.61
2024-04-30T10:55:49.430Z,1.79
2024-04-30T10:56:49.332Z,1.99
2024-04-30T10:57:49.680Z,2.17
2024-04-30T10:58:49.306Z,2.33
2024-04-30T10:59:49.264Z,2.27
2024-04-30T11:00:49.305Z,2.24
2024-04-30T11:01:49.237Z,2.13
2024-04-30T11:02:50.717Z,1.97
2024-04-30T11:03:49.125Z,1.97
2024-04-30T11:04:49.131Z,1.90
2024-04-30T11:05:49.051Z,1.83
2024-04-30T11:06:49.095Z,1.86
2024-04-30T11:07:48.998Z,1.80
2024-04-30T11:08:48.947Z,1.80
2024-04-30T11:09:48.936Z,1.91
2024-04-30T11:10:49.117Z,2.11
2024-04-30T11:11:49.854Z,2.21
2024-04-30T11:12:49.130Z,2.37
2024-04-30T11:13:48.981Z,2.48
2024-04-30T11:14:48.899Z,2.49
2024-04-30T11:15:56.686Z,2.54
2024-04-30T11:16:48.967Z,2.54
2024-04-30T11:17:48.937Z,2.55
2024-04-30T11:18:48.936Z,2.53
2024-04-30T11:19:48.945Z,2.46
2024-04-30T11:20:48.808Z,2.35
2024-04-30T11:21:48.801Z,2.25
2024-04-30T11:22:48.854Z,2.16
2024-04-30T11:23:48.747Z,2.05
2024-04-30T11:24:48.709Z,2.00
2024-04-30T11:25:48.746Z,1.94
2024-04-30T11:26:50.812Z,1.86
2024-04-30T11:27:48.701Z,1.86
2024-04-30T11:29:03.670Z,1.79
2024-04-30T11:29:48.710Z,1.86
2024-04-30T11:30:48.588Z,1.85
2024-04-30T11:31:48.550Z,1.68
2024-04-30T11:32:48.623Z,1.69
2024-04-30T11:33:48.705Z,1.64
2024-04-30T11:34:48.504Z,1.63
2024-04-30T11:35:48.444Z,1.56
2024-04-30T11:36:48.422Z,1.54
2024-04-30T11:37:48.438Z,1.51
2024-04-30T11:38:48.409Z,1.49
2024-04-30T11:39:48.312Z,1.46
2024-04-30T11:40:48.324Z,1.43
2024-04-30T11:41:56.951Z,1.40
2024-04-30T11:42:48.721Z,1.40
2024-04-30T11:43:48.642Z,1.40
2024-04-30T11:44:48.798Z,1.39
2024-04-30T11:45:48.629Z,1.35
2024-04-30T11:46:48.642Z,1.30
2024-04-30T11:47:48.237Z,1.23
2024-04-30T11:48:48.158Z,1.23
2024-04-30T11:49:48.125Z,1.20
2024-04-30T11:50:48.157Z,1.19
2024-04-30T11:51:48.053Z,1.17
2024-04-30T11:52:48.074Z,1.15
2024-04-30T11:53:48.029Z,1.15
2024-04-30T11:54:48.008Z,1.12
2024-04-30T11:55:48.046Z,1.11
2024-04-30T11:56:47.942Z,1.07
2024-04-30T11:57:47.923Z,1.09
2024-04-30T11:58:47.890Z,1.07
2024-04-30T11:59:47.932Z,1.05
2024-04-30T12:00:48.001Z,1.08
2024-04-30T12:01:47.983Z,1.11
2024-04-30T12:02:48.063Z,1.16
2024-04-30T12:03:47.992Z,1.19
2024-04-30T12:04:48.226Z,1.22
2024-04-30T12:05:48.039Z,1.26
2024-04-30T12:06:47.974Z,1.29
2024-04-30T12:07:48.182Z,1.31
2024-04-30T12:08:47.957Z,1.39
2024-04-30T12:09:47.936Z,1.38
2024-04-30T12:10:48.047Z,1.46
2024-04-30T12:11:47.949Z,1.46
2024-04-30T12:12:47.890Z,1.53
2024-04-30T12:13:48.140Z,1.56
2024-04-30T12:14:47.867Z,1.56
2024-04-30T12:15:48.164Z,1.61
2024-04-30T12:16:48.613Z,1.66
2024-04-30T12:17:47.939Z,1.68
2024-04-30T12:18:47.816Z,1.66
2024-04-30T12:19:47.852Z,1.73
2024-04-30T12:20:48.158Z,1.79
2024-04-30T12:21:47.767Z,1.79
2024-04-30T12:22:47.800Z,1.70
2024-04-30T12:23:49.819Z,1.66
2024-04-30T12:24:48.184Z,1.61
2024-04-30T12:25:47.826Z,1.63
2024-04-30T12:26:47.760Z,1.63
2024-04-30T12:27:47.725Z,1.62
2024-04-30T12:28:47.767Z,1.54
2024-04-30T12:29:47.729Z,1.51
2024-04-30T12:30:47.700Z,1.51
2024-04-30T12:31:47.692Z,1.46
2024-04-30T12:32:47.687Z,1.43
2024-04-30T12:33:47.707Z,1.40
2024-04-30T12:34:47.689Z,1.37
2024-04-30T12:35:47.615Z,1.32
2024-04-30T12:36:47.609Z,1.28
2024-04-30T12:37:47.638Z,1.30
2024-04-30T12:38:47.606Z,1.21
2024-04-30T12:39:47.568Z,1.19
2024-04-30T12:40:47.647Z,1.15
2024-04-30T12:41:47.535Z,1.15
2024-04-30T12:42:47.530Z,1.11
2024-04-30T12:43:47.521Z,1.16
2024-04-30T12:44:47.671Z,1.16
2024-04-30T12:45:47.497Z,1.18
2024-04-30T12:46:47.571Z,1.22
2024-04-30T12:47:47.537Z,1.22
2024-04-30T12:48:47.536Z,1.24
2024-04-30T12:49:47.693Z,1.29
2024-04-30T12:50:47.393Z,1.35
2024-04-30T12:51:47.397Z,1.50
2024-04-30T12:52:47.394Z,1.59
2024-04-30T12:53:47.456Z,1.65
2024-04-30T12:54:47.391Z,1.62
2024-04-30T12:55:47.559Z,1.55
2024-04-30T12:56:47.444Z,1.45
2024-04-30T12:57:47.496Z,1.39
2024-04-30T12:58:47.765Z,1.28
2024-04-30T12:59:47.521Z,1.23
2024-04-30T13:00:47.602Z,1.26
2024-04-30T13:01:47.826Z,1.28
2024-04-30T13:02:47.657Z,1.27
2024-04-30T13:03:47.636Z,1.22
2024-04-30T13:04:47.713Z,1.14
2024-04-30T13:05:47.666Z,1.09
2024-04-30T13:06:47.671Z,1.07
2024-04-30T13:07:47.703Z,1.06
2024-04-30T13:08:47.705Z,1.06
2024-04-30T13:09:47.708Z,1.05
2024-04-30T13:10:47.799Z,1.10
2024-04-30T13:11:47.746Z,1.11
2024-04-30T13:12:47.754Z,1.13
2024-04-30T13:13:47.808Z,1.14
2024-04-30T13:14:48.199Z,1.11
2024-04-30T13:15:47.839Z,1.12
2024-04-30T13:16:47.913Z,1.11
2024-04-30T13:17:47.973Z,1.11
2024-04-30T13:18:47.942Z,1.12
2024-04-30T13:19:47.978Z,1.12